createdAt,value
2019-03-19T00:01:39.445Z,102210.58
2019-03-19T00:04:09.858Z,102210.58
2019-03-19T00:06:40.126Z,102210.45
2019-03-19T00:09:10.444Z,102200.41
2019-03-19T00:11:41.061Z,102206.53
2019-03-19T00:14:13.079Z,102204.93
2019-03-19T00:16:43.362Z,102204.93
2019-03-19T00:19:15.638Z,102212.59
2019-03-19T00:21:45.943Z,102211.77
2019-03-19T00:24:16.532Z,102212.64
2019-03-19T00:26:46.908Z,102212.64
2019-03-19T00:29:17.488Z,102212.59
2019-03-19T00:31:47.813Z,102204.69
2019-03-19T00:34:18.084Z,102204.99
2019-03-19T00:36:48.376Z,102216.64
2019-03-19T00:39:18.723Z,102225.52
2019-03-19T00:41:49.030Z,102221.08
2019-03-19T00:44:19.401Z,102219.52
2019-03-19T00:46:49.680Z,102229.29
2019-03-19T00:49:20.358Z,102239.56
2019-03-19T00:51:50.644Z,102234.47
2019-03-19T00:54:23.756Z,102233.87
2019-03-19T00:56:55.465Z,102245.67
2019-03-19T00:59:30.612Z,102240.41
2019-03-19T01:02:00.860Z,102244.25
2019-03-19T01:04:31.292Z,102236.56
2019-03-19T01:07:01.585Z,102236.41
2019-03-19T01:09:33.612Z,102235.84
2019-03-19T01:12:03.909Z,102240.11
2019-03-19T01:14:34.367Z,102249.81
2019-03-19T01:17:05.292Z,102246.20
2019-03-19T01:19:36.091Z,102243.95
2019-03-19T01:22:06.705Z,102249.28
2019-03-19T01:24:37.021Z,102245.61
2019-03-19T01:27:07.559Z,102240.70
2019-03-19T01:29:37.850Z,102243.16
2019-03-19T01:32:08.181Z,102248.62
2019-03-19T01:34:38.499Z,102248.25
2019-03-19T01:37:10.400Z,102251.06
2019-03-19T01:39:40.923Z,102257.11
2019-03-19T01:42:11.577Z,102254.90
2019-03-19T01:44:41.899Z,102257.59
2019-03-19T01:47:13.670Z,102264.09
2019-03-19T01:49:44.136Z,102270.63
2019-03-19T01:52:14.939Z,102269.36
2019-03-19T01:54:45.225Z,102271.58
2019-03-19T01:57:15.929Z,102273.28
2019-03-19T01:59:46.228Z,102270.45
2019-03-19T02:02:16.518Z,102272.06
2019-03-19T02:04:46.843Z,102274.64
2019-03-19T02:07:17.172Z,102279.17
2019-03-19T02:09:47.767Z,102279.17
2019-03-19T02:12:18.143Z,102286.20
2019-03-19T02:14:48.991Z,102281.16
2019-03-19T02:17:19.338Z,102290.04
2019-03-19T02:19:49.900Z,102295.50
2019-03-19T02:22:20.209Z,102294.31
2019-03-19T02:24:50.546Z,102292.25
2019-03-19T02:27:21.205Z,102299.50
2019-03-19T02:29:51.622Z,102306.44
2019-03-19T02:32:22.187Z,102309.38
2019-03-19T02:34:53.705Z,102305.53
2019-03-19T02:37:23.973Z,102310.48
2019-03-19T02:39:54.275Z,102309.80
2019-03-19T02:42:24.801Z,102307.31
2019-03-19T02:44:56.100Z,102310.03
2019-03-19T02:47:26.430Z,102313.27
2019-03-19T02:49:56.726Z,102315.25
2019-03-19T02:52:26.990Z,102329.59
2019-03-19T02:54:57.601Z,102327.80
2019-03-19T02:57:28.261Z,102326.23
2019-03-19T02:59:58.696Z,102329.52
2019-03-19T03:02:29.153Z,102336.33
2019-03-19T03:04:59.475Z,102341.50
2019-03-19T03:07:29.987Z,102351.65
2019-03-19T03:10:00.554Z,102349.77
2019-03-19T03:12:33.220Z,102326.91
2019-03-19T03:15:03.525Z,102326.91
2019-03-19T03:17:34.928Z,102333.87
2019-03-19T03:20:05.843Z,102339.07
2019-03-19T03:22:36.477Z,102346.70
2019-03-19T03:25:07.261Z,102340.33
2019-03-19T03:27:37.546Z,102339.21
2019-03-19T03:30:09.248Z,102338.23
2019-03-19T03:32:39.585Z,102345.37
2019-03-19T03:35:10.952Z,102348.56
2019-03-19T03:37:41.207Z,102355.00
2019-03-19T03:40:12.566Z,102357.83
2019-03-19T03:42:43.522Z,102353.70
2019-03-19T03:45:14.319Z,102360.39
2019-03-19T03:47:44.591Z,102359.75
2019-03-19T03:50:15.237Z,102354.23
2019-03-19T03:52:45.570Z,102362.13
2019-03-19T03:55:16.291Z,102356.30
2019-03-19T03:57:47.868Z,102361.02
2019-03-19T04:00:18.347Z,102364.59
2019-03-19T04:02:48.901Z,102363.92
2019-03-19T04:05:19.405Z,102363.92
2019-03-19T04:07:49.820Z,102371.52
2019-03-19T04:10:21.145Z,102368.87
2019-03-19T04:12:51.721Z,102360.05
2019-03-19T04:15:23.130Z,102368.22
2019-03-19T04:17:53.622Z,102367.91
2019-03-19T04:20:23.912Z,102373.56
2019-03-19T04:22:54.564Z,102381.83
2019-03-19T04:25:25.832Z,102382.87
2019-03-19T04:27:56.131Z,102383.34
2019-03-19T04:30:26.671Z,102394.93
2019-03-19T04:32:56.974Z,102393.86
2019-03-19T04:35:27.281Z,102390.72
2019-03-19T04:37:57.793Z,102393.30
2019-03-19T04:40:28.102Z,102393.30
2019-03-19T04:42:58.675Z,102409.02
2019-03-19T04:45:29.095Z,102414.72
2019-03-19T04:48:03.630Z,102417.41
2019-03-19T04:50:34.141Z,102406.58
2019-03-19T04:53:07.010Z,102411.47
2019-03-19T04:55:37.326Z,102411.28
2019-03-19T04:58:10.462Z,102419.05
2019-03-19T05:00:42.790Z,102419.23
2019-03-19T05:03:15.140Z,102418.64
2019-03-19T05:05:45.482Z,102417.27
2019-03-19T05:10:53.044Z,102418.52
2019-03-19T05:13:25.025Z,102430.06
2019-03-19T05:15:55.367Z,102424.27
2019-03-19T05:18:26.579Z,102421.30
2019-03-19T05:20:56.856Z,102423.59
2019-03-19T05:23:27.607Z,102426.79
2019-03-19T05:25:57.897Z,102426.79
2019-03-19T05:28:28.551Z,102424.77
2019-03-19T05:30:59.191Z,102428.72
2019-03-19T05:33:32.917Z,102423.74
2019-03-19T05:36:02.223Z,102433.66
2019-03-19T05:38:32.562Z,102434.56
2019-03-19T05:41:03.124Z,102439.02
2019-03-19T05:43:33.444Z,102447.55
2019-03-19T05:46:04.024Z,102451.94
2019-03-19T05:48:35.306Z,102454.56
2019-03-19T05:51:05.653Z,102456.34
2019-03-19T05:53:36.015Z,102458.99
2019-03-19T05:56:06.970Z,102459.25
2019-03-19T05:58:37.637Z,102461.05
2019-03-19T06:01:08.307Z,102461.05
2019-03-19T06:03:38.590Z,102469.11
2019-03-19T06:06:09.846Z,102473.55
2019-03-19T06:08:40.163Z,102478.59
2019-03-19T06:11:12.245Z,102478.59
2019-03-19T06:13:42.541Z,102480.21
2019-03-19T06:16:14.767Z,102479.03
2019-03-19T06:18:45.070Z,102480.66
2019-03-19T06:21:15.367Z,102490.17
2019-03-19T06:23:45.947Z,102493.83
2019-03-19T06:26:17.132Z,102490.21
2019-03-19T06:28:47.603Z,102488.84
2019-03-19T06:31:17.917Z,102500.14
2019-03-19T06:33:48.609Z,102504.06
2019-03-19T06:36:18.954Z,102503.11
2019-03-19T06:38:49.225Z,102507.63
2019-03-19T06:41:19.817Z,102495.97
2019-03-19T06:43:50.072Z,102496.67
2019-03-19T06:46:20.375Z,102498.71
2019-03-19T06:48:51.053Z,102507.30
2019-03-19T06:51:21.681Z,102508.61
2019-03-19T06:53:53.043Z,102508.61
2019-03-19T06:56:24.335Z,102507.96
2019-03-19T06:58:55.863Z,102498.65
2019-03-19T07:01:26.205Z,102502.27
2019-03-19T07:03:56.517Z,102500.33
2019-03-19T07:06:26.898Z,102494.88
2019-03-19T07:08:57.283Z,102505.95
2019-03-19T07:11:27.840Z,102503.58
2019-03-19T07:13:59.139Z,102501.50
2019-03-19T07:16:29.796Z,102487.53
2019-03-19T07:19:00.062Z,102486.84
2019-03-19T07:21:30.658Z,102487.80
2019-03-19T07:24:00.958Z,102490.54
2019-03-19T07:26:31.347Z,102483.73
2019-03-19T07:29:01.732Z,102470.27
2019-03-19T07:31:32.401Z,102461.09
2019-03-19T07:34:02.728Z,102459.20
2019-03-19T07:36:34.955Z,102464.62
2019-03-19T07:39:08.741Z,102483.47
2019-03-19T07:41:40.687Z,102489.45
2019-03-19T07:44:11.039Z,102483.22
2019-03-19T07:46:45.817Z,102479.25
2019-03-19T07:49:16.136Z,102475.77
2019-03-19T07:51:47.455Z,102474.11
2019-03-19T07:54:17.860Z,102470.94
2019-03-19T07:56:49.891Z,102472.50
2019-03-19T07:59:20.453Z,102472.50
2019-03-19T08:01:51.230Z,102470.45
2019-03-19T08:04:21.508Z,102471.67
2019-03-19T08:06:51.864Z,102465.05
2019-03-19T08:09:22.190Z,102461.66
2019-03-19T08:11:52.752Z,102469.91
2019-03-19T08:14:23.332Z,102474.30
2019-03-19T08:16:54.209Z,102478.24
2019-03-19T08:19:24.544Z,102478.67
2019-03-19T08:21:55.187Z,102472.52
2019-03-19T08:24:26.670Z,102473.53
2019-03-19T08:26:57.273Z,102473.80
2019-03-19T08:29:27.674Z,102479.21
2019-03-19T08:31:58.225Z,102483.52
2019-03-19T08:34:28.806Z,102488.41
2019-03-19T08:36:59.371Z,102488.48
2019-03-19T08:39:29.749Z,102484.55
2019-03-19T08:42:00.350Z,102484.62
2019-03-19T08:44:30.672Z,102492.80
2019-03-19T08:47:01.265Z,102487.63
2019-03-19T08:49:34.212Z,102499.44
2019-03-19T08:52:04.785Z,102505.52
2019-03-19T08:54:35.267Z,102515.43
2019-03-19T08:57:06.181Z,102515.43
2019-03-19T08:59:36.808Z,102510.36
2019-03-19T09:02:07.546Z,102501.41
2019-03-19T09:04:38.109Z,102508.34
2019-03-19T09:07:08.408Z,102507.46
2019-03-19T09:09:39.945Z,102504.01
2019-03-19T09:12:10.327Z,102498.77
2019-03-19T09:14:40.909Z,102498.66
2019-03-19T09:17:11.568Z,102493.52
2019-03-19T09:19:43.371Z,102498.77
2019-03-19T09:22:15.214Z,102495.09
2019-03-19T09:24:45.807Z,102494.91
2019-03-19T09:27:16.377Z,102499.27
2019-03-19T09:29:46.997Z,102501.62
2019-03-19T09:32:17.563Z,102513.02
2019-03-19T09:34:48.164Z,102511.37
2019-03-19T09:37:18.471Z,102503.02
2019-03-19T09:39:49.150Z,102501.66
2019-03-19T09:42:19.460Z,102502.64
2019-03-19T09:44:58.445Z,102511.46
2019-03-19T09:47:23.061Z,102513.42
2019-03-19T09:49:53.692Z,102514.23
2019-03-19T09:52:24.237Z,102514.42
2019-03-19T09:54:55.087Z,102512.97
2019-03-19T09:57:25.686Z,102502.14
2019-03-19T09:59:56.479Z,102513.09
2019-03-19T10:02:27.120Z,102511.84
2019-03-19T10:04:57.583Z,102512.22
2019-03-19T10:07:28.187Z,102513.38
2019-03-19T10:09:58.466Z,102513.90
2019-03-19T10:12:29.075Z,102513.66
2019-03-19T10:14:59.382Z,102514.44
2019-03-19T10:17:30.366Z,102518.63
2019-03-19T10:20:00.971Z,102500.09
2019-03-19T10:22:33.927Z,102500.09
2019-03-19T10:25:05.080Z,102505.08
2019-03-19T10:27:35.792Z,102504.58
2019-03-19T10:30:09.397Z,102500.52
2019-03-19T10:32:40.283Z,102500.86
2019-03-19T10:35:10.998Z,102494.13
2019-03-19T10:37:41.582Z,102495.55
2019-03-19T10:40:13.209Z,102494.98
2019-03-19T10:42:43.882Z,102493.89
2019-03-19T10:45:15.812Z,102502.39
2019-03-19T10:47:46.424Z,102502.39
2019-03-19T10:50:20.415Z,102502.02
2019-03-19T10:52:51.268Z,102502.02
2019-03-19T10:55:24.062Z,102506.96
2019-03-19T10:57:54.637Z,102507.86
2019-03-19T11:00:25.406Z,102509.27
2019-03-19T11:02:56.078Z,102512.38
2019-03-19T11:05:26.745Z,102510.59
2019-03-19T11:07:57.178Z,102505.41
2019-03-19T11:10:27.856Z,102516.52
2019-03-19T11:12:58.443Z,102523.50
2019-03-19T11:15:31.478Z,102545.44
2019-03-19T11:18:01.297Z,102552.13
2019-03-19T11:20:31.593Z,102558.92
2019-03-19T11:23:01.915Z,102558.89
2019-03-19T11:25:32.254Z,102560.02
2019-03-19T11:28:02.594Z,102559.55
2019-03-19T11:30:33.038Z,102565.31
2019-03-19T11:33:03.585Z,102568.32
2019-03-19T11:35:33.864Z,102569.13
2019-03-19T11:38:04.469Z,102562.26
2019-03-19T11:40:35.092Z,102568.34
2019-03-19T11:43:05.584Z,102564.75
2019-03-19T11:45:35.898Z,102562.39
2019-03-19T11:48:06.716Z,102564.80
2019-03-19T11:50:37.270Z,102558.55
2019-03-19T11:53:07.748Z,102555.66
2019-03-19T11:55:38.304Z,102557.44
2019-03-19T11:58:08.652Z,102562.08
2019-03-19T12:00:41.904Z,102556.39
2019-03-19T12:03:16.216Z,102552.73
2019-03-19T12:05:44.356Z,102546.16
2019-03-19T12:08:14.645Z,102553.40
2019-03-19T12:10:45.233Z,102552.28
2019-03-19T12:13:15.554Z,102559.06
2019-03-19T12:15:46.162Z,102556.16
2019-03-19T12:18:16.436Z,102553.42
2019-03-19T12:20:47.202Z,102548.27
2019-03-19T12:23:17.520Z,102555.02
2019-03-19T12:25:48.861Z,102551.02
2019-03-19T12:28:19.458Z,102549.05
2019-03-19T12:30:49.977Z,102545.92
2019-03-19T12:33:20.275Z,102543.59
2019-03-19T12:35:51.874Z,102545.02
2019-03-19T12:38:22.420Z,102549.88
2019-03-19T12:40:52.953Z,102546.93
2019-03-19T12:43:23.276Z,102550.89
2019-03-19T12:45:53.576Z,102553.70
2019-03-19T12:48:24.159Z,102547.04
2019-03-19T12:50:54.523Z,102547.00
2019-03-19T12:53:25.089Z,102550.67
2019-03-19T12:55:55.399Z,102546.33
2019-03-19T12:58:25.721Z,102546.33
2019-03-19T13:00:56.157Z,102543.94
2019-03-19T13:03:26.482Z,102543.94
2019-03-19T13:05:57.795Z,102541.95
2019-03-19T13:08:29.312Z,102541.81
2019-03-19T13:10:59.669Z,102541.63
2019-03-19T13:13:29.989Z,102536.39
2019-03-19T13:16:00.262Z,102534.61
2019-03-19T13:18:31.027Z,102528.19
2019-03-19T13:21:01.371Z,102539.45
2019-03-19T13:23:32.594Z,102539.17
2019-03-19T13:26:02.878Z,102539.17
2019-03-19T13:28:33.278Z,102541.50
2019-03-19T13:31:03.840Z,102538.61
2019-03-19T13:33:34.162Z,102543.58
2019-03-19T13:36:04.886Z,102545.98
2019-03-19T13:38:35.276Z,102544.10
2019-03-19T13:41:05.957Z,102544.10
2019-03-19T13:43:36.542Z,102543.18
2019-03-19T13:46:08.859Z,102544.63
2019-03-19T13:48:39.159Z,102539.28
2019-03-19T13:51:09.765Z,102548.30
2019-03-19T13:53:40.361Z,102543.55
2019-03-19T13:56:13.857Z,102540.05
2019-03-19T13:58:43.102Z,102544.52
2019-03-19T14:01:13.473Z,102549.38
2019-03-19T14:03:44.047Z,102546.92
2019-03-19T14:06:15.786Z,102541.63
2019-03-19T14:08:46.287Z,102541.30
2019-03-19T14:11:18.810Z,102544.47
2019-03-19T14:13:49.289Z,102545.02
2019-03-19T14:16:21.032Z,102540.04
2019-03-19T14:18:51.937Z,102542.40
2019-03-19T14:21:22.456Z,102530.56
2019-03-19T14:23:52.780Z,102533.50
2019-03-19T14:26:23.373Z,102533.98
2019-03-19T14:28:53.853Z,102539.02
2019-03-19T14:31:24.785Z,102539.02
2019-03-19T14:33:55.408Z,102533.31
2019-03-19T14:36:25.729Z,102531.87
2019-03-19T14:38:56.450Z,102538.19
2019-03-19T14:41:26.879Z,102535.85
2019-03-19T14:43:57.228Z,102534.59
2019-03-19T14:46:27.588Z,102534.27
2019-03-19T14:48:58.130Z,102533.95
2019-03-19T14:51:28.420Z,102538.18
2019-03-19T14:53:59.024Z,102541.24
2019-03-19T14:56:29.376Z,102537.36
2019-03-19T14:59:01.493Z,102537.17
2019-03-19T15:01:31.989Z,102540.34
2019-03-19T15:04:04.198Z,102535.94
2019-03-19T15:06:34.502Z,102541.13
2019-03-19T15:09:06.385Z,102543.78
2019-03-19T15:11:36.790Z,102549.27
2019-03-19T15:14:07.229Z,102545.59
2019-03-19T15:16:38.634Z,102545.59
2019-03-19T15:19:08.971Z,102552.18
2019-03-19T15:21:39.346Z,102547.52
2019-03-19T15:24:09.743Z,102548.97
2019-03-19T15:26:40.421Z,102533.55
2019-03-19T15:29:10.757Z,102533.55
2019-03-19T15:31:43.187Z,102544.23
2019-03-19T15:34:13.494Z,102541.40
2019-03-19T15:36:44.154Z,102546.41
2019-03-19T15:39:14.779Z,102544.52
2019-03-19T15:41:45.387Z,102552.72
2019-03-19T15:44:15.641Z,102555.33
2019-03-19T15:46:48.038Z,102559.11
2019-03-19T15:49:18.530Z,102552.70
2019-03-19T15:51:49.187Z,102553.47
2019-03-19T15:54:19.645Z,102554.65
2019-03-19T15:56:53.764Z,102549.67
2019-03-19T15:59:24.077Z,102547.42
2019-03-19T16:01:56.584Z,102551.22
2019-03-19T16:04:27.125Z,102557.33
2019-03-19T16:06:57.406Z,102554.81
2019-03-19T16:09:27.762Z,102557.93
2019-03-19T16:11:58.054Z,102556.16
2019-03-19T16:14:28.710Z,102563.52
2019-03-19T16:16:59.095Z,102564.81
2019-03-19T16:19:29.735Z,102558.10
2019-03-19T16:22:00.137Z,102565.16
2019-03-19T16:24:30.765Z,102564.94
2019-03-19T16:27:01.165Z,102563.75
2019-03-19T16:29:31.955Z,102562.93
2019-03-19T16:32:02.262Z,102566.88
2019-03-19T16:34:32.929Z,102569.02
2019-03-19T16:37:03.232Z,102562.93
2019-03-19T16:39:35.290Z,102569.34
2019-03-19T16:42:05.838Z,102570.39
2019-03-19T16:44:37.233Z,102569.16
2019-03-19T16:47:07.539Z,102574.09
2019-03-19T16:49:39.199Z,102574.50
2019-03-19T16:52:09.707Z,102577.31
2019-03-19T16:54:40.096Z,102582.18
2019-03-19T16:57:10.371Z,102585.25
2019-03-19T16:59:40.659Z,102588.08
2019-03-19T17:02:11.244Z,102594.89
2019-03-19T17:04:41.611Z,102594.89
2019-03-19T17:07:11.929Z,102597.59
2019-03-19T17:09:42.277Z,102605.09
2019-03-19T17:12:12.949Z,102605.00
2019-03-19T17:14:44.595Z,102605.68
2019-03-19T17:17:15.175Z,102611.77
2019-03-19T17:19:45.547Z,102606.86
2019-03-19T17:22:16.212Z,102615.67
2019-03-19T17:24:46.538Z,102616.42
2019-03-19T17:27:18.190Z,102619.73
2019-03-19T17:29:48.562Z,102620.68
2019-03-19T17:32:19.102Z,102629.31
2019-03-19T17:34:49.456Z,102624.08
2019-03-19T17:37:20.765Z,102629.26
2019-03-19T17:39:51.437Z,102636.27
2019-03-19T17:42:22.096Z,102643.17
2019-03-19T17:44:53.126Z,102646.63
2019-03-19T17:47:23.518Z,102645.42
2019-03-19T17:49:54.137Z,102649.12
2019-03-19T17:52:24.466Z,102652.80
2019-03-19T17:54:54.795Z,102651.74
2019-03-19T17:57:26.749Z,102650.47
2019-03-19T17:59:57.834Z,102656.45
2019-03-19T18:02:28.255Z,102652.83
2019-03-19T18:04:58.875Z,102656.92
2019-03-19T18:07:29.205Z,102663.36
2019-03-19T18:10:00.751Z,102662.80
2019-03-19T18:12:31.292Z,102663.08
2019-03-19T18:15:01.852Z,102670.13
2019-03-19T18:17:32.330Z,102672.38
2019-03-19T18:20:04.189Z,102676.54
2019-03-19T18:22:34.523Z,102671.96
2019-03-19T18:25:05.846Z,102680.41
2019-03-19T18:27:36.354Z,102674.41
2019-03-19T18:30:07.795Z,102679.32
2019-03-19T18:32:38.094Z,102678.61
2019-03-19T18:35:09.873Z,102676.63
2019-03-19T18:37:40.335Z,102680.78
2019-03-19T18:40:10.710Z,102686.80
2019-03-19T18:42:42.043Z,102688.16
2019-03-19T18:45:12.708Z,102688.84
2019-03-19T18:47:43.215Z,102684.50
2019-03-19T18:50:14.081Z,102689.59
2019-03-19T18:52:44.636Z,102693.20
2019-03-19T18:55:15.143Z,102692.95
2019-03-19T18:57:45.473Z,102694.80
2019-03-19T19:00:16.297Z,102705.48
2019-03-19T19:02:50.351Z,102703.21
2019-03-19T19:05:19.110Z,102704.23
2019-03-19T19:07:49.624Z,102712.87
2019-03-19T19:10:21.315Z,102710.44
2019-03-19T19:12:51.816Z,102716.39
2019-03-19T19:15:22.194Z,102718.89
2019-03-19T19:17:55.105Z,102723.35
2019-03-19T19:20:25.495Z,102729.17
2019-03-19T19:22:57.671Z,102728.01
2019-03-19T19:25:28.045Z,102732.99
2019-03-19T19:27:59.636Z,102740.27
2019-03-19T19:30:29.997Z,102742.59
2019-03-19T19:33:02.934Z,102743.64
2019-03-19T19:35:35.134Z,102745.44
2019-03-19T19:38:06.642Z,102748.63
2019-03-19T19:40:37.370Z,102749.63
2019-03-19T19:43:07.713Z,102758.44
2019-03-19T19:45:38.380Z,102751.59
2019-03-19T19:48:08.813Z,102760.48
2019-03-19T19:50:39.137Z,102755.16
2019-03-19T19:53:09.558Z,102766.48
2019-03-19T19:55:40.647Z,102767.24
2019-03-19T19:58:10.977Z,102763.54
2019-03-19T20:00:41.364Z,102764.42
2019-03-19T20:03:12.788Z,102771.17
2019-03-19T20:05:43.161Z,102772.08
2019-03-19T20:08:13.528Z,102780.84
2019-03-19T20:10:46.502Z,102779.05
2019-03-19T20:13:16.901Z,102787.57
2019-03-19T20:15:49.247Z,102796.20
2019-03-19T20:18:19.738Z,102793.28
2019-03-19T20:20:50.386Z,102793.05
2019-03-19T20:23:20.725Z,102796.98
2019-03-19T20:25:51.395Z,102794.06
2019-03-19T20:28:22.657Z,102796.11
2019-03-19T20:30:53.057Z,102797.37
2019-03-19T20:33:25.356Z,102798.88
2019-03-19T20:35:55.967Z,102799.78
2019-03-19T20:38:26.554Z,102806.52
2019-03-19T20:40:56.899Z,102807.00
2019-03-19T20:43:27.604Z,102805.99
2019-03-19T20:45:57.979Z,102809.66
2019-03-19T20:48:30.625Z,102811.56
2019-03-19T20:51:01.092Z,102811.19
2019-03-19T20:53:32.697Z,102809.39
2019-03-19T20:56:04.571Z,102812.95
2019-03-19T20:58:43.158Z,102816.49
2019-03-19T21:01:07.242Z,102826.17
2019-03-19T21:03:37.675Z,102821.98
2019-03-19T21:06:08.170Z,102826.31
2019-03-19T21:08:38.493Z,102831.40
2019-03-19T21:11:08.874Z,102829.34
2019-03-19T21:13:40.227Z,102839.13
2019-03-19T21:16:10.596Z,102838.82
2019-03-19T21:18:41.849Z,102847.59
2019-03-19T21:21:12.282Z,102850.13
2019-03-19T21:23:42.852Z,102851.25
2019-03-19T21:26:14.206Z,102851.25
2019-03-19T21:28:45.374Z,102860.23
2019-03-19T21:31:15.997Z,102866.13
2019-03-19T21:33:51.365Z,102863.83
2019-03-19T21:36:21.922Z,102862.92
2019-03-19T21:38:52.423Z,102852.42
2019-03-19T21:41:23.666Z,102856.94
2019-03-19T21:43:54.011Z,102855.72
2019-03-19T21:46:26.508Z,102859.75
2019-03-19T21:48:56.843Z,102855.20
2019-03-19T21:51:28.417Z,102852.66
2019-03-19T21:53:58.729Z,102848.60
2019-03-19T21:56:29.082Z,102845.69
2019-03-19T21:58:59.507Z,102850.92
2019-03-19T22:01:30.142Z,102845.05
2019-03-19T22:04:03.349Z,102835.88
2019-03-19T22:06:32.503Z,102836.58
2019-03-19T22:09:02.817Z,102844.13
2019-03-19T22:11:34.828Z,102834.51
2019-03-19T22:14:05.128Z,102834.25
2019-03-19T22:16:36.412Z,102832.89
2019-03-19T22:19:06.774Z,102839.13
2019-03-19T22:21:38.901Z,102845.47
2019-03-19T22:24:09.483Z,102848.38
2019-03-19T22:26:39.951Z,102853.55
2019-03-19T22:29:12.629Z,102861.16
2019-03-19T22:31:44.787Z,102858.60
2019-03-19T22:34:15.119Z,102860.37
2019-03-19T22:36:46.376Z,102860.30
2019-03-19T22:39:16.659Z,102862.56
2019-03-19T22:41:46.938Z,102859.53
2019-03-19T22:44:17.538Z,102866.59
2019-03-19T22:46:48.081Z,102874.90
2019-03-19T22:49:18.403Z,102868.28
2019-03-19T22:51:48.672Z,102876.75
2019-03-19T22:54:18.959Z,102881.91
2019-03-19T22:56:49.272Z,102880.12
2019-03-19T22:59:19.616Z,102885.71
2019-03-19T23:01:49.920Z,102878.39
2019-03-19T23:04:27.193Z,102883.21
2019-03-19T23:06:52.370Z,102878.14
2019-03-19T23:09:22.932Z,102873.60
2019-03-19T23:11:53.225Z,102871.56
2019-03-19T23:14:23.954Z,102870.57
2019-03-19T23:16:54.283Z,102868.84
2019-03-19T23:19:25.017Z,102867.36
2019-03-19T23:21:55.573Z,102860.28
2019-03-19T23:24:25.839Z,102855.45
2019-03-19T23:26:56.278Z,102850.36
2019-03-19T23:29:27.508Z,102856.91
2019-03-19T23:31:58.095Z,102862.75
2019-03-19T23:34:38.227Z,102863.92
2019-03-19T23:37:00.803Z,102870.22
2019-03-19T23:39:31.158Z,102871.28
2019-03-19T23:42:01.814Z,102880.77
2019-03-19T23:44:32.402Z,102877.13
2019-03-19T23:47:02.761Z,102868.98
2019-03-19T23:49:33.099Z,102871.48
2019-03-19T23:52:03.471Z,102873.90
2019-03-19T23:54:33.745Z,102875.53
2019-03-19T23:57:05.392Z,102878.36
2019-03-19T23:59:35.916Z,102880.33
